Terminal Aerodrome Forecast
Issued by NWS

Home | Current Version | Previous Version | Text Only | Print | Product List | Glossary On
Versions: 1 2 3 4 5 6 7 8 9 10 11 12 13 14 15
871
FTUS44 KMAF 200247 AAA
TAFHOB
TAF AMD
KHOB 200247Z 2003/2024 14014G22KT P6SM BKN060
     FM200800 12020G30KT P6SM SCT030 BKN050
     FM201700 14022G32KT P6SM SCT050 BKN100=

USA.gov is the U.S. government's official web portal to all federal, state and local government web resources and services.